Time;durP1;ratioP1;P1;durP2;ratioP2;P2;SDS_P1;SDS_P2;PMS_P1;PMS_P2;Temp;Humidity;BMP_temperature;BMP_pressure;BME280_temperature;BME280_humidity;BME280_pressure;Samples;Min_cycle;Max_cycle;Signal;HPM_P1;HPM_P2
2024/03/04 00:01:57;;;;;;;80.22;46.20;;;6.60;99.90;;;;;;4936457;28;20108;-54
2024/03/04 00:04:23;;;;;;;74.00;43.28;;;6.60;99.90;;;;;;4899903;28;20033;-54
2024/03/04 00:06:49;;;;;;;69.07;42.13;;;6.50;99.90;;;;;;4926261;28;20033;-58
2024/03/04 00:09:15;;;;;;;82.65;44.20;;;6.60;99.90;;;;;;4931599;28;20029;-58
2024/03/04 00:11:41;;;;;;;78.53;43.47;;;6.50;99.90;;;;;;4983168;28;20398;-55
2024/03/04 00:14:07;;;;;;;74.85;41.50;;;6.50;99.90;;;;;;4964634;28;20036;-55
2024/03/04 00:16:33;;;;;;;77.13;43.33;;;6.50;99.90;;;;;;4948942;28;20022;-54
2024/03/04 00:18:58;;;;;;;78.95;43.47;;;6.60;99.90;;;;;;4957834;28;20030;-54
2024/03/04 00:21:24;;;;;;;81.55;44.13;;;6.60;99.90;;;;;;4941310;28;20018;-54
2024/03/04 00:23:50;;;;;;;82.53;43.38;;;6.60;99.90;;;;;;4991742;28;20034;-54
2024/03/04 00:26:15;;;;;;;75.78;42.10;;;6.60;99.90;;;;;;4955864;28;20100;-54
2024/03/04 00:28:41;;;;;;;71.50;43.70;;;6.60;99.90;;;;;;4949643;28;20030;-56
2024/03/04 00:31:06;;;;;;;78.88;44.97;;;6.60;99.90;;;;;;4939384;28;20057;-53
2024/03/04 00:33:32;;;;;;;77.25;45.67;;;6.60;99.90;;;;;;4946598;28;20038;-52
2024/03/04 00:35:58;;;;;;;82.63;45.95;;;6.60;99.90;;;;;;4972218;28;20034;-56
2024/03/04 00:38:23;;;;;;;75.57;43.70;;;6.60;99.90;;;;;;4956911;28;20104;-52
2024/03/04 00:40:49;;;;;;;79.18;42.92;;;6.60;99.90;;;;;;4933008;28;20291;-53
2024/03/04 00:43:15;;;;;;;75.88;44.30;;;6.60;99.90;;;;;;4945868;28;20034;-55
2024/03/04 00:45:40;;;;;;;76.28;45.45;;;6.60;99.90;;;;;;4949470;28;20026;-55
2024/03/04 00:48:06;;;;;;;80.68;43.70;;;6.50;99.90;;;;;;4976881;28;20036;-55
2024/03/04 00:50:32;;;;;;;75.07;40.83;;;6.50;99.90;;;;;;4949676;28;20037;-54
2024/03/04 00:52:58;;;;;;;86.32;46.95;;;6.50;99.90;;;;;;4955867;28;20034;-55
2024/03/04 00:55:24;;;;;;;78.47;43.60;;;6.50;99.90;;;;;;4954069;28;20058;-56
2024/03/04 00:57:50;;;;;;;80.22;43.72;;;6.50;99.90;;;;;;4934773;28;20061;-53
2024/03/04 01:00:17;;;;;;;78.88;45.78;;;6.50;99.90;;;;;;4942500;28;20026;-55
2024/03/04 01:02:43;;;;;;;79.85;44.92;;;6.50;99.90;;;;;;4981958;28;20029;-53
2024/03/04 01:05:09;;;;;;;83.20;45.92;;;6.60;99.90;;;;;;4952410;28;20080;-53
2024/03/04 01:07:34;;;;;;;77.15;44.60;;;6.50;99.90;;;;;;4952899;28;20030;-56
2024/03/04 01:10:00;;;;;;;72.57;43.95;;;6.50;99.90;;;;;;4938892;28;20034;-53
2024/03/04 01:12:25;;;;;;;80.85;43.97;;;6.50;99.90;;;;;;4934132;28;20037;-55
2024/03/04 01:14:52;;;;;;;76.88;44.42;;;6.50;99.90;;;;;;4983899;28;20378;-54
2024/03/04 01:17:17;;;;;;;79.32;44.35;;;6.50;99.90;;;;;;4948900;28;20110;-54
2024/03/04 01:19:46;;;;;;;82.07;44.90;;;6.50;99.90;;;;;;4938099;28;20527;-54
2024/03/04 01:22:16;;;;;;;78.75;45.10;;;6.50;99.90;;;;;;4942303;28;20034;-54
2024/03/04 01:24:43;;;;;;;69.75;43.70;;;6.50;99.90;;;;;;4942003;28;20037;-54
2024/03/04 01:27:13;;;;;;;81.28;43.20;;;6.50;99.90;;;;;;4950241;28;20072;-59
2024/03/04 01:29:42;;;;;;;71.55;41.50;;;6.50;99.90;;;;;;4965708;28;20029;-54
2024/03/04 01:32:09;;;;;;;75.13;43.33;;;6.50;99.90;;;;;;4946404;28;20044;-54
2024/03/04 01:34:41;;;;;;;75.68;43.28;;;6.50;99.90;;;;;;4932982;28;20030;-52
2024/03/04 01:37:08;;;;;;;71.95;43.90;;;6.50;99.90;;;;;;4921142;28;20034;-55
2024/03/04 01:39:34;;;;;;;75.22;45.70;;;6.50;99.90;;;;;;4918641;28;20042;-54
2024/03/04 01:42:01;;;;;;;75.43;44.78;;;6.50;99.90;;;;;;4963158;28;20022;-53
2024/03/04 01:44:35;;;;;;;72.05;43.47;;;6.50;99.90;;;;;;4944993;28;20033;-53
2024/03/04 01:47:04;;;;;;;77.78;43.70;;;6.50;99.90;;;;;;4943800;28;20141;-55
2024/03/04 01:49:35;;;;;;;75.20;43.22;;;6.50;99.90;;;;;;4943192;28;20073;-56
2024/03/04 01:52:01;;;;;;;70.53;41.58;;;6.50;99.90;;;;;;4915607;28;20124;-55
2024/03/04 01:54:28;;;;;;;81.50;45.17;;;6.50;99.90;;;;;;4941563;28;21891;-55
2024/03/04 01:56:54;;;;;;;76.15;43.60;;;6.50;99.90;;;;;;4957182;28;20034;-53
2024/03/04 01:59:20;;;;;;;71.22;42.47;;;6.50;99.90;;;;;;4936617;28;20176;-53
2024/03/04 02:01:46;;;;;;;72.78;42.92;;;6.50;99.90;;;;;;4938307;28;20030;-59
2024/03/04 02:04:12;;;;;;;80.03;43.75;;;6.50;99.90;;;;;;4928631;28;20038;-56
2024/03/04 02:06:39;;;;;;;79.10;43.25;;;6.50;99.90;;;;;;4932606;28;20060;-55
2024/03/04 02:09:07;;;;;;;69.50;43.95;;;6.50;99.90;;;;;;4980107;28;20100;-55
2024/03/04 02:11:33;;;;;;;69.15;43.45;;;6.50;99.90;;;;;;4926346;28;20116;-55
2024/03/04 02:13:59;;;;;;;65.85;39.78;;;6.40;99.90;;;;;;4931844;28;20401;-56
2024/03/04 02:16:24;;;;;;;68.68;40.90;;;6.50;99.90;;;;;;4939793;28;20033;-55
2024/03/04 02:18:50;;;;;;;68.30;40.08;;;6.40;99.90;;;;;;4923569;28;20075;-55
2024/03/04 02:21:19;;;;;;;70.18;40.25;;;6.40;99.90;;;;;;4912734;28;20030;-59
2024/03/04 02:23:45;;;;;;;65.80;39.80;;;6.40;99.90;;;;;;4955163;28;20038;-57
2024/03/04 02:26:10;;;;;;;69.32;41.15;;;6.40;99.90;;;;;;4928846;28;20029;-54
2024/03/04 02:28:36;;;;;;;67.40;40.83;;;6.40;99.90;;;;;;4930188;28;20517;-53
2024/03/04 02:31:03;;;;;;;69.30;41.70;;;6.40;99.90;;;;;;4917790;28;20034;-55
2024/03/04 02:33:29;;;;;;;66.45;40.88;;;6.40;99.90;;;;;;4920233;28;21301;-56
2024/03/04 02:35:55;;;;;;;66.18;40.15;;;6.40;99.90;;;;;;4970066;28;20029;-53
2024/03/04 02:38:20;;;;;;;62.08;38.38;;;6.40;99.90;;;;;;4929222;28;20026;-53
2024/03/04 02:40:50;;;;;;;62.58;39.22;;;6.40;99.90;;;;;;4935776;28;20022;-58
2024/03/04 02:43:16;;;;;;;65.93;39.53;;;6.40;99.90;;;;;;4916970;28;20040;-55
2024/03/04 02:45:42;;;;;;;59.25;37.47;;;6.30;99.90;;;;;;4916917;28;20034;-56
2024/03/04 02:48:08;;;;;;;63.42;39.88;;;6.30;99.90;;;;;;4946964;28;20517;-60
2024/03/04 02:50:33;;;;;;;62.75;39.45;;;6.30;99.90;;;;;;4932241;28;20051;-56
2024/03/04 02:53:01;;;;;;;61.13;38.13;;;6.30;99.90;;;;;;4925125;28;20684;-54
2024/03/04 02:55:27;;;;;;;69.10;40.08;;;6.30;99.90;;;;;;4949166;28;20030;-56
2024/03/04 02:57:52;;;;;;;62.80;39.22;;;6.30;99.90;;;;;;4971688;28;20510;-55
2024/03/04 03:00:18;;;;;;;67.85;38.65;;;6.30;99.90;;;;;;4972835;28;20108;-59
2024/03/04 03:02:43;;;;;;;68.15;36.63;;;6.30;99.90;;;;;;4991302;28;20029;-54
2024/03/04 03:05:10;;;;;;;60.50;37.53;;;6.30;99.90;;;;;;4981676;28;20057;-54
2024/03/04 03:07:35;;;;;;;59.78;36.65;;;6.30;99.90;;;;;;4975854;28;20022;-55
2024/03/04 03:10:02;;;;;;;62.65;37.45;;;6.20;99.90;;;;;;4973833;28;20091;-55
2024/03/04 03:12:28;;;;;;;64.88;39.05;;;6.20;99.90;;;;;;4970428;28;20576;-55
2024/03/04 03:14:54;;;;;;;58.78;37.17;;;6.20;99.90;;;;;;4990684;28;20030;-53
2024/03/04 03:17:20;;;;;;;53.92;35.55;;;6.20;99.90;;;;;;4984150;28;20087;-55
2024/03/04 03:19:45;;;;;;;58.38;37.28;;;6.20;99.90;;;;;;4972148;28;20018;-58
2024/03/04 03:22:11;;;;;;;58.70;35.45;;;6.20;99.90;;;;;;4969790;28;20041;-54
2024/03/04 03:24:37;;;;;;;58.92;35.00;;;6.20;99.90;;;;;;4970688;28;20041;-54
2024/03/04 03:27:02;;;;;;;58.40;37.42;;;6.20;99.90;;;;;;4987730;28;20121;-54
2024/03/04 03:29:28;;;;;;;59.58;36.88;;;6.20;99.90;;;;;;4979638;28;20038;-54
2024/03/04 03:31:54;;;;;;;54.15;35.53;;;6.20;99.90;;;;;;4972400;28;20025;-53
2024/03/04 03:34:19;;;;;;;62.03;36.05;;;6.20;99.90;;;;;;4970466;28;20026;-55
2024/03/04 03:36:45;;;;;;;67.90;37.53;;;6.20;99.90;;;;;;4971875;28;20033;-54
2024/03/04 03:39:10;;;;;;;56.03;36.08;;;6.20;99.90;;;;;;4980622;28;20524;-58
2024/03/04 03:41:37;;;;;;;66.13;37.67;;;6.20;99.90;;;;;;4966226;28;20117;-53
2024/03/04 03:44:02;;;;;;;55.60;35.72;;;6.20;99.90;;;;;;4993691;23;20038;-49
2024/03/04 03:46:28;;;;;;;59.33;37.33;;;6.20;99.90;;;;;;4983298;28;20092;-47
2024/03/04 03:48:53;;;;;;;53.13;36.60;;;6.20;99.90;;;;;;4959367;28;20076;-49
2024/03/04 03:51:19;;;;;;;58.58;36.42;;;6.20;99.90;;;;;;4961857;28;20037;-55
2024/03/04 03:53:44;;;;;;;58.40;36.78;;;6.10;99.90;;;;;;4981578;28;20646;-50
2024/03/04 03:56:11;;;;;;;56.53;35.92;;;6.10;99.90;;;;;;4977021;28;20497;-48
2024/03/04 03:58:37;;;;;;;60.33;37.38;;;6.10;99.90;;;;;;4969583;28;20026;-47
2024/03/04 04:01:03;;;;;;;52.10;33.78;;;6.10;99.90;;;;;;4957417;28;20029;-52
2024/03/04 04:03:28;;;;;;;55.17;33.85;;;6.10;99.90;;;;;;4962268;28;20112;-46
2024/03/04 04:05:54;;;;;;;56.17;34.63;;;6.00;99.90;;;;;;4978620;28;22457;-48
2024/03/04 04:08:19;;;;;;;56.47;34.58;;;6.00;99.90;;;;;;4973061;28;20111;-50
2024/03/04 04:10:45;;;;;;;51.60;34.15;;;6.00;99.90;;;;;;4965195;28;20036;-57
2024/03/04 04:13:11;;;;;;;58.47;35.70;;;5.90;99.90;;;;;;4956371;28;20041;-51
2024/03/04 04:15:36;;;;;;;59.67;36.95;;;5.90;99.90;;;;;;4948675;28;20181;-47
2024/03/04 04:18:02;;;;;;;56.22;36.67;;;5.90;99.90;;;;;;4980820;28;20233;-48
2024/03/04 04:20:30;;;;;;;57.97;36.35;;;5.80;99.90;;;;;;4970173;28;20477;-51
2024/03/04 04:22:56;;;;;;;54.20;36.20;;;5.80;99.90;;;;;;4964348;28;20018;-48
2024/03/04 04:25:21;;;;;;;61.92;34.78;;;5.80;99.90;;;;;;4971845;28;20049;-48
2024/03/04 04:27:47;;;;;;;57.05;35.00;;;5.80;99.90;;;;;;4954246;28;20092;-48
2024/03/04 04:30:13;;;;;;;58.78;35.92;;;5.80;99.90;;;;;;4979926;28;20083;-56
2024/03/04 04:32:38;;;;;;;57.13;36.20;;;5.80;99.90;;;;;;4966069;28;20026;-48
2024/03/04 04:35:04;;;;;;;56.20;35.47;;;5.70;99.90;;;;;;4970373;28;22404;-50
2024/03/04 04:37:30;;;;;;;52.67;35.50;;;5.70;99.90;;;;;;4993254;28;20092;-51
2024/03/04 04:39:57;;;;;;;61.38;37.35;;;5.70;99.90;;;;;;4982432;28;20026;-50
2024/03/04 04:42:23;;;;;;;66.65;37.97;;;5.70;99.90;;;;;;4973076;28;20485;-48
2024/03/04 04:44:48;;;;;;;56.00;35.40;;;5.60;99.90;;;;;;4976497;28;21417;-46
2024/03/04 04:47:15;;;;;;;67.10;38.60;;;5.60;99.90;;;;;;4996601;28;20057;-47
2024/03/04 04:49:40;;;;;;;56.80;35.08;;;5.60;99.90;;;;;;4996937;28;20113;-49
2024/03/04 04:52:06;;;;;;;62.03;36.15;;;5.60;99.90;;;;;;4980678;28;20108;-47
2024/03/04 04:54:31;;;;;;;53.20;33.65;;;5.60;99.90;;;;;;4986001;28;20156;-48
2024/03/04 04:56:57;;;;;;;60.75;37.03;;;5.50;99.90;;;;;;4979198;28;20053;-45
2024/03/04 04:59:22;;;;;;;61.15;36.03;;;5.50;99.90;;;;;;4995169;28;20425;-47
2024/03/04 05:01:48;;;;;;;60.00;38.25;;;5.50;99.90;;;;;;4989826;28;20109;-56
2024/03/04 05:04:14;;;;;;;57.72;35.45;;;5.50;99.90;;;;;;5000700;28;20060;-47
2024/03/04 05:06:40;;;;;;;61.67;37.17;;;5.50;99.90;;;;;;4975416;28;20065;-45
2024/03/04 05:09:06;;;;;;;58.55;36.80;;;5.50;99.90;;;;;;4976997;28;20026;-49
2024/03/04 05:11:34;;;;;;;60.40;36.65;;;5.40;99.90;;;;;;4981502;28;20030;-54
2024/03/04 05:13:59;;;;;;;55.75;35.58;;;5.40;99.90;;;;;;5006318;28;20029;-47
2024/03/04 05:16:25;;;;;;;56.72;36.65;;;5.40;99.90;;;;;;5001015;28;20030;-46
2024/03/04 05:18:51;;;;;;;63.55;37.55;;;5.40;99.90;;;;;;4987906;28;20061;-47
2024/03/04 05:21:17;;;;;;;58.47;37.50;;;5.40;99.90;;;;;;4972201;28;20109;-48
2024/03/04 05:23:43;;;;;;;58.88;35.70;;;5.40;99.90;;;;;;4911977;28;20036;-48
2024/03/04 05:26:08;;;;;;;62.30;37.65;;;5.40;99.90;;;;;;4956659;28;20729;-50
2024/03/04 05:28:34;;;;;;;58.83;36.20;;;5.30;99.90;;;;;;4974740;28;20042;-46
2024/03/04 05:31:00;;;;;;;62.47;38.55;;;5.30;99.90;;;;;;4947008;28;20033;-46
2024/03/04 05:33:25;;;;;;;61.20;37.55;;;5.30;99.90;;;;;;4923519;28;20514;-48
2024/03/04 05:35:51;;;;;;;59.88;35.05;;;5.30;99.90;;;;;;4901245;28;21385;-46
2024/03/04 05:38:17;;;;;;;57.55;37.65;;;5.30;99.90;;;;;;4947383;28;20018;-49
2024/03/04 05:40:42;;;;;;;59.42;36.63;;;5.30;99.90;;;;;;4966286;28;20038;-47
2024/03/04 05:43:08;;;;;;;66.32;38.53;;;5.30;99.90;;;;;;4946689;28;20246;-56
2024/03/04 05:45:34;;;;;;;56.40;37.05;;;5.30;99.90;;;;;;4931021;28;20477;-45
2024/03/04 05:47:59;;;;;;;58.40;36.03;;;5.30;99.90;;;;;;4919738;28;20029;-47
2024/03/04 05:50:26;;;;;;;61.72;36.35;;;5.30;99.90;;;;;;4937344;28;20025;-49
2024/03/04 05:52:53;;;;;;;54.78;36.65;;;5.30;99.90;;;;;;4919800;28;20064;-57
2024/03/04 05:55:18;;;;;;;60.53;36.90;;;5.30;99.90;;;;;;4973684;28;20032;-47
2024/03/04 05:57:44;;;;;;;63.17;37.35;;;5.30;99.90;;;;;;4933326;28;20667;-46
2024/03/04 06:00:16;;;;;;;60.83;36.70;;;5.20;99.90;;;;;;4895670;28;20022;-49
2024/03/04 06:02:42;;;;;;;64.40;37.15;;;5.20;99.90;;;;;;4878934;28;20057;-49
2024/03/04 06:05:08;;;;;;;57.35;36.85;;;5.20;99.90;;;;;;4934447;28;22665;-50
2024/03/04 06:07:34;;;;;;;56.97;36.17;;;5.20;99.90;;;;;;4976819;28;20041;-47
2024/03/04 06:10:00;;;;;;;56.85;34.90;;;5.20;99.90;;;;;;4927331;28;20038;-46
2024/03/04 06:12:25;;;;;;;58.58;36.85;;;5.20;99.90;;;;;;4907838;28;20038;-50
2024/03/04 06:14:51;;;;;;;61.83;38.30;;;5.10;99.90;;;;;;4903125;28;20124;-48
2024/03/04 06:17:16;;;;;;;52.60;36.42;;;5.20;99.90;;;;;;4930779;28;20029;-49
2024/03/04 06:19:42;;;;;;;54.45;35.42;;;5.20;99.90;;;;;;4968420;28;20470;-49
2024/03/04 06:22:08;;;;;;;62.30;38.08;;;5.20;99.90;;;;;;4927275;28;20029;-57
2024/03/04 06:24:34;;;;;;;62.60;39.30;;;5.20;99.90;;;;;;4909202;28;20034;-50
2024/03/04 06:27:03;;;;;;;61.53;37.75;;;5.10;99.90;;;;;;4900604;28;20115;-47
2024/03/04 06:29:39;;;;;;;60.65;38.05;;;5.20;99.90;;;;;;4919369;28;20029;-47
2024/03/04 06:32:05;;;;;;;61.20;37.80;;;5.10;99.90;;;;;;4930581;28;20572;-47
2024/03/04 06:34:31;;;;;;;58.03;35.80;;;5.20;99.90;;;;;;4975387;28;20780;-48
2024/03/04 06:36:57;;;;;;;56.22;35.72;;;5.20;99.90;;;;;;4925039;28;20395;-49
2024/03/04 06:39:24;;;;;;;69.63;39.72;;;5.20;99.90;;;;;;4897220;28;20030;-48
2024/03/04 06:41:50;;;;;;;61.33;38.85;;;5.20;99.90;;;;;;4903767;28;21260;-49
2024/03/04 06:44:16;;;;;;;67.47;37.60;;;5.20;99.90;;;;;;4924692;28;21962;-49
2024/03/04 06:46:42;;;;;;;58.22;37.38;;;5.20;99.90;;;;;;4956064;28;20034;-56
2024/03/04 06:49:08;;;;;;;59.17;38.20;;;5.20;99.90;;;;;;4929230;28;20049;-58
2024/03/04 06:51:36;;;;;;;65.35;37.85;;;5.20;99.90;;;;;;4888834;28;20025;-47
2024/03/04 06:54:05;;;;;;;70.07;39.10;;;5.20;99.90;;;;;;4909528;28;20403;-49
2024/03/04 06:56:31;;;;;;;57.90;38.15;;;5.20;99.90;;;;;;4912955;28;20049;-58
2024/03/04 06:59:00;;;;;;;63.55;37.60;;;5.20;99.90;;;;;;4922530;28;20486;-55
2024/03/04 07:01:27;;;;;;;64.78;38.40;;;5.20;99.90;;;;;;4966183;28;20018;-50
2024/03/04 07:03:53;;;;;;;63.85;36.72;;;5.20;99.90;;;;;;4924428;28;20137;-47
2024/03/04 07:06:21;;;;;;;61.33;37.10;;;5.20;99.90;;;;;;4910662;28;20026;-47
2024/03/04 07:08:47;;;;;;;59.20;35.97;;;5.20;99.90;;;;;;4912153;28;20026;-47
2024/03/04 07:11:13;;;;;;;63.60;36.08;;;5.30;99.90;;;;;;4916326;28;21614;-47
2024/03/04 07:13:40;;;;;;;60.65;36.53;;;5.30;99.90;;;;;;4975615;28;20379;-50
2024/03/04 07:16:07;;;;;;;69.00;37.47;;;5.30;99.90;;;;;;4943286;28;20034;-47
2024/03/04 07:18:33;;;;;;;62.33;38.25;;;5.30;99.90;;;;;;4886595;28;20673;-48
2024/03/04 07:20:59;;;;;;;65.53;37.90;;;5.30;99.90;;;;;;4908570;28;20042;-47
2024/03/04 07:23:25;;;;;;;61.58;38.20;;;5.30;99.90;;;;;;4909225;28;20053;-46
2024/03/04 07:25:51;;;;;;;63.00;37.97;;;5.40;99.90;;;;;;4953106;28;20451;-56
2024/03/04 07:28:17;;;;;;;66.72;39.17;;;5.40;99.90;;;;;;4930107;28;20041;-46
2024/03/04 07:30:42;;;;;;;69.13;39.15;;;5.40;99.90;;;;;;4926070;28;20097;-47
2024/03/04 07:33:11;;;;;;;67.50;40.45;;;5.40;99.90;;;;;;4899434;28;20088;-45
2024/03/04 07:35:37;;;;;;;68.93;39.65;;;5.50;99.90;;;;;;4883661;28;20029;-50
2024/03/04 07:38:03;;;;;;;64.50;39.40;;;5.50;99.90;;;;;;4905655;28;20022;-49
2024/03/04 07:40:28;;;;;;;66.20;39.22;;;5.50;99.90;;;;;;4962995;28;21083;-48
2024/03/04 07:42:54;;;;;;;71.82;39.28;;;5.50;99.90;;;;;;4910206;28;20049;-46
2024/03/04 07:45:19;;;;;;;65.90;39.45;;;5.60;99.90;;;;;;4878076;28;20514;-46
2024/03/04 07:47:45;;;;;;;61.75;38.80;;;5.60;99.90;;;;;;4900898;28;20608;-47
2024/03/04 07:50:10;;;;;;;59.75;37.97;;;5.70;99.90;;;;;;4895326;28;21743;-47
2024/03/04 07:52:37;;;;;;;79.00;42.20;;;5.70;99.90;;;;;;4943698;28;20040;-49
2024/03/04 07:55:03;;;;;;;79.43;42.03;;;5.80;99.90;;;;;;4904187;28;20029;-46
2024/03/04 07:57:30;;;;;;;65.70;40.67;;;5.80;99.90;;;;;;4885013;28;20037;-57
2024/03/04 07:59:56;;;;;;;62.83;40.03;;;5.80;99.90;;;;;;4881253;28;20116;-47
2024/03/04 08:02:21;;;;;;;65.72;39.85;;;5.80;99.90;;;;;;4901174;28;20045;-50
2024/03/04 08:04:47;;;;;;;68.55;40.40;;;5.90;99.90;;;;;;4949148;28;20037;-56
2024/03/04 08:07:13;;;;;;;61.45;39.58;;;5.90;99.90;;;;;;4912255;28;20553;-57
2024/03/04 08:09:39;;;;;;;72.15;39.17;;;5.90;99.90;;;;;;4938464;28;20095;-45
2024/03/04 08:12:06;;;;;;;72.20;40.65;;;6.00;99.90;;;;;;4902022;28;20061;-46
2024/03/04 08:14:31;;;;;;;65.65;38.65;;;6.00;99.90;;;;;;4885417;28;20702;-48
2024/03/04 08:16:57;;;;;;;66.07;39.38;;;6.10;99.90;;;;;;4952480;28;20034;-46
2024/03/04 08:19:22;;;;;;;63.70;39.38;;;6.20;99.90;;;;;;4961041;28;20420;-47
2024/03/04 08:21:48;;;;;;;70.32;41.22;;;6.20;99.90;;;;;;4982252;28;22473;-48
2024/03/04 08:24:13;;;;;;;76.35;42.60;;;6.30;99.90;;;;;;4963410;28;20053;-47
2024/03/04 08:26:39;;;;;;;70.30;40.35;;;6.20;99.90;;;;;;4957203;28;20030;-46
2024/03/04 08:29:05;;;;;;;71.18;41.20;;;6.20;99.90;;;;;;4939960;28;20781;-46
2024/03/04 08:31:31;;;;;;;63.67;39.08;;;6.30;99.90;;;;;;4949710;28;21768;-46
2024/03/04 08:33:57;;;;;;;63.47;38.63;;;6.30;99.90;;;;;;4985295;28;20030;-48
2024/03/04 08:36:22;;;;;;;75.07;40.63;;;6.40;99.90;;;;;;4957234;28;20560;-47
2024/03/04 08:38:48;;;;;;;68.25;39.38;;;6.40;99.90;;;;;;4937861;28;20022;-48
2024/03/04 08:41:15;;;;;;;71.82;39.40;;;6.40;99.90;;;;;;4951384;28;20060;-48
2024/03/04 08:43:41;;;;;;;65.50;37.72;;;6.50;99.90;;;;;;4935490;28;20037;-46
2024/03/04 08:46:07;;;;;;;59.33;38.28;;;6.60;99.90;;;;;;4979483;28;20026;-46
2024/03/04 08:48:32;;;;;;;65.38;40.13;;;6.70;99.90;;;;;;4944939;28;20025;-46
2024/03/04 08:50:58;;;;;;;71.43;42.75;;;6.80;99.90;;;;;;4956449;28;20494;-46
2024/03/04 08:53:23;;;;;;;64.43;38.85;;;6.90;99.90;;;;;;4948207;28;20494;-46
2024/03/04 08:55:49;;;;;;;67.75;41.03;;;6.90;99.90;;;;;;4938565;28;20026;-46
2024/03/04 08:58:15;;;;;;;68.80;40.28;;;7.00;99.90;;;;;;4948370;28;20091;-53
2024/03/04 09:00:40;;;;;;;64.57;40.30;;;7.10;99.90;;;;;;4957850;28;20021;-46
2024/03/04 09:03:07;;;;;;;64.68;39.30;;;7.10;99.90;;;;;;4948940;28;21201;-50
2024/03/04 09:05:33;;;;;;;67.22;41.55;;;7.20;99.90;;;;;;4952509;28;20105;-47
2024/03/04 09:08:02;;;;;;;69.43;40.00;;;7.30;99.90;;;;;;4931791;28;20034;-50
2024/03/04 09:10:29;;;;;;;64.97;38.78;;;7.30;99.90;;;;;;4930017;28;21369;-48
2024/03/04 09:12:56;;;;;;;66.82;39.90;;;7.40;99.90;;;;;;4970916;28;20030;-46
2024/03/04 09:15:22;;;;;;;70.70;41.50;;;7.40;99.90;;;;;;4953529;28;20033;-51
2024/03/04 09:17:49;;;;;;;66.72;39.83;;;7.40;99.90;;;;;;4930608;28;20105;-50
2024/03/04 09:20:14;;;;;;;61.13;39.63;;;7.50;99.90;;;;;;4950463;28;20026;-50
2024/03/04 09:22:40;;;;;;;69.22;40.10;;;7.40;99.90;;;;;;4943027;28;20429;-49
2024/03/04 09:25:06;;;;;;;70.22;41.00;;;7.50;99.90;;;;;;4983368;28;20029;-49
2024/03/04 09:27:32;;;;;;;65.50;39.85;;;7.50;99.90;;;;;;4930150;28;20083;-56
2024/03/04 09:29:58;;;;;;;66.55;38.03;;;7.60;99.90;;;;;;4957831;28;20030;-47
2024/03/04 09:32:26;;;;;;;63.25;39.70;;;7.60;99.90;;;;;;4939182;28;20055;-46
2024/03/04 09:34:51;;;;;;;64.18;39.53;;;7.60;99.90;;;;;;4930747;28;20022;-46
2024/03/04 09:37:17;;;;;;;70.78;40.70;;;7.70;99.90;;;;;;4925433;28;20092;-54
2024/03/04 09:39:42;;;;;;;71.97;41.38;;;7.70;99.90;;;;;;4969771;28;20615;-46
2024/03/04 09:42:09;;;;;;;64.68;38.47;;;7.70;99.90;;;;;;4942903;28;21074;-48
2024/03/04 09:44:35;;;;;;;65.35;39.90;;;7.70;99.90;;;;;;4944481;22;20038;-84
2024/03/04 09:47:00;;;;;;;65.05;38.67;;;7.70;99.90;;;;;;4914651;28;20019;-84
2024/03/04 09:49:31;;;;;;;67.05;40.03;;;7.80;99.90;;;;;;4939123;28;20022;-84
2024/03/04 09:52:01;;;;;;;76.68;42.03;;;7.80;99.90;;;;;;4913146;28;20113;-84
2024/03/04 09:54:31;;;;;;;70.03;41.63;;;7.80;99.90;;;;;;4885644;28;20022;-84
2024/03/04 09:56:57;;;;;;;68.57;42.30;;;7.90;99.90;;;;;;4881156;28;20478;-83
2024/03/04 09:59:24;;;;;;;66.07;42.58;;;7.90;99.90;;;;;;4931655;28;20036;-85
2024/03/04 10:01:50;;;;;;;72.53;41.75;;;8.00;99.90;;;;;;4893422;28;20041;-85
2024/03/04 10:04:16;;;;;;;66.07;39.85;;;8.10;99.90;;;;;;4931085;28;20023;-81
2024/03/04 10:06:42;;;;;;;67.35;42.28;;;8.10;99.90;;;;;;4966086;28;20022;-85
2024/03/04 10:09:12;;;;;;;65.82;40.55;;;8.10;99.90;;;;;;4945851;28;21559;-85
2024/03/04 10:11:38;;;;;;;66.38;42.70;;;8.20;99.90;;;;;;4946796;28;20537;-84
2024/03/04 10:14:04;;;;;;;72.68;41.55;;;8.20;99.90;;;;;;4943887;28;20124;-83
2024/03/04 10:16:30;;;;;;;65.13;42.90;;;8.20;99.90;;;;;;4949604;28;20050;-86
2024/03/04 10:19:00;;;;;;;65.75;42.22;;;8.20;99.90;;;;;;4940393;28;20019;-86
2024/03/04 10:21:32;;;;;;;63.92;40.20;;;8.30;99.90;;;;;;4902735;28;20043;-85
2024/03/04 10:24:08;;;;;;;64.30;42.10;;;8.30;99.90;;;;;;4892739;28;20471;-84
2024/03/04 10:26:44;;;;;;;;;;;8.40;99.90;;;;;;4916730;28;20030;-84
2024/03/04 10:29:12;;;;;;;66.00;39.65;;;8.50;99.90;;;;;;4880674;28;20064;-84
2024/03/04 10:31:48;;;;;;;68.88;42.85;;;8.70;99.90;;;;;;4850072;28;20023;-84
2024/03/04 10:34:14;;;;;;;64.75;41.80;;;8.90;99.90;;;;;;4892508;28;20044;-83
2024/03/04 10:36:40;;;;;;;71.88;42.20;;;9.00;99.90;;;;;;4929078;28;20121;-84
2024/03/04 10:39:13;;;;;;;68.53;43.33;;;9.20;99.90;;;;;;4914356;28;21565;-86
2024/03/04 10:41:43;;;;;;;62.63;41.85;;;9.30;99.90;;;;;;4941683;28;20126;-84
2024/03/04 10:44:09;;;;;;;65.70;40.53;;;9.50;99.90;;;;;;4845961;28;20394;-84
2024/03/04 10:46:38;;;;;;;67.60;43.30;;;9.60;99.90;;;;;;4881888;28;21725;-84
2024/03/04 10:49:03;;;;;;;60.35;42.15;;;9.80;99.90;;;;;;4928902;28;20053;-84
2024/03/04 10:51:29;;;;;;;59.80;41.25;;;9.90;99.90;;;;;;4880092;28;20578;-82
2024/03/04 10:53:54;;;;;;;63.40;41.28;;;10.10;99.90;;;;;;4884451;28;20045;-83
2024/03/04 10:56:21;;;;;;;58.70;38.92;;;10.20;99.90;;;;;;4927527;28;20018;-84
2024/03/04 10:58:49;;;;;;;57.20;39.65;;;10.20;99.90;;;;;;4876032;28;20022;-84
2024/03/04 11:01:19;;;;;;;58.88;39.78;;;10.30;99.90;;;;;;4883568;28;20022;-83
2024/03/04 11:03:59;;;;;;;52.05;36.22;;;10.30;99.90;;;;;;4921856;28;20057;-85
2024/03/04 11:06:28;;;;;;;59.03;39.20;;;10.30;99.90;;;;;;4876709;28;20850;-84
2024/03/04 11:09:01;;;;;;;52.88;36.65;;;10.20;99.90;;;;;;4887766;28;20030;-83
2024/03/04 11:11:34;;;;;;;53.85;36.55;;;10.20;99.90;;;;;;4926800;28;20119;-84
2024/03/04 11:14:06;;;;;;;51.70;35.70;;;10.20;99.90;;;;;;4869055;28;20019;-84
2024/03/04 11:16:47;;;;;;;49.92;35.60;;;10.20;99.90;;;;;;4863740;28;21521;-84
2024/03/04 11:19:32;;;;;;;49.58;35.92;;;10.20;99.90;;;;;;4895234;28;20088;-84
2024/03/04 11:22:00;;;;;;;51.78;35.78;;;10.30;99.90;;;;;;4925628;28;20487;-84
2024/03/04 11:24:27;;;;;;;51.95;34.00;;;10.40;99.90;;;;;;4883800;28;20121;-84
2024/03/04 11:26:54;;;;;;;46.75;33.60;;;10.50;99.90;;;;;;4925702;28;20094;-83
2024/03/04 11:29:21;;;;;;;48.85;33.08;;;10.60;99.90;;;;;;4932422;28;20344;-84
2024/03/04 11:31:55;;;;;;;47.83;33.35;;;10.80;99.90;;;;;;4886044;28;20034;-85
2024/03/04 11:34:21;;;;;;;48.50;32.33;;;10.90;99.90;;;;;;4885197;28;20050;-85
2024/03/04 11:36:50;;;;;;;44.58;33.00;;;11.00;99.90;;;;;;4942418;28;20024;-85
2024/03/04 11:39:20;;;;;;;46.30;31.88;;;11.10;99.90;;;;;;4880981;28;20026;-85
2024/03/04 11:41:48;;;;;;;42.90;30.95;;;11.20;99.90;;;;;;4893594;28;20109;-83
2024/03/04 11:44:18;;;;;;;46.80;31.20;;;11.30;99.90;;;;;;4895032;28;20373;-84
2024/03/04 11:46:44;;;;;;;45.58;30.52;;;11.40;99.90;;;;;;4886216;28;20040;-84
2024/03/04 11:49:31;;;;;;;40.70;29.88;;;11.40;99.90;;;;;;4920675;28;20030;-83
2024/03/04 11:52:05;;;;;;;40.72;30.88;;;11.50;99.90;;;;;;4938303;28;20085;-85
2024/03/04 11:54:36;;;;;;;41.65;30.67;;;11.50;99.90;;;;;;4888278;28;20125;-83
2024/03/04 11:57:04;;;;;;;46.35;29.35;;;11.50;99.90;;;;;;4886712;28;20513;-85
2024/03/04 11:59:31;;;;;;;40.67;29.58;;;11.60;99.90;;;;;;4932729;28;20033;-87
2024/03/04 12:01:56;;;;;;;44.47;30.67;;;11.60;99.90;;;;;;4863756;28;20493;-84
2024/03/04 12:04:24;;;;;;;41.45;31.70;;;11.60;99.90;;;;;;4870581;28;20030;-85
2024/03/04 12:06:51;;;;;;;43.65;30.63;;;11.70;99.90;;;;;;4921001;28;20495;-83
2024/03/04 12:09:25;;;;;;;43.53;31.38;;;11.70;99.90;;;;;;4894672;28;20049;-85
2024/03/04 12:11:57;;;;;;;41.35;29.40;;;11.80;99.90;;;;;;4869177;28;20046;-84
2024/03/04 12:14:23;;;;;;;39.80;28.33;;;11.90;99.90;;;;;;4929680;28;20434;-86
2024/03/04 12:16:48;;;;;;;43.05;29.98;;;11.80;99.90;;;;;;4862017;28;20045;-85
2024/03/04 12:19:14;;;;;;;40.80;30.73;;;11.80;99.90;;;;;;4884063;28;20393;-84
2024/03/04 12:21:40;;;;;;;37.35;28.33;;;11.90;99.90;;;;;;4926023;28;20042;-85
2024/03/04 12:24:09;;;;;;;37.83;28.33;;;11.90;99.90;;;;;;4901092;28;21440;-86
2024/03/04 12:26:35;;;;;;;40.30;28.65;;;12.00;99.90;;;;;;4904477;28;20030;-86
2024/03/04 12:29:06;;;;;;;37.58;28.30;;;12.00;99.90;;;;;;4850406;28;20018;-84
2024/03/04 12:31:32;;;;;;;38.40;28.92;;;12.10;99.90;;;;;;4902440;28;21414;-85
2024/03/04 12:33:58;;;;;;;42.00;29.27;;;12.20;99.90;;;;;;4939193;28;20037;-83